sensor_id;sensor_type;location;lat;lon;timestamp;P1;durP1;ratioP1;P2;durP2;ratioP2
14774;SDS011;7479;47.042;15.160;2023-06-14T09:01:39;6.20;;;4.77;;
14774;SDS011;7479;47.042;15.160;2023-06-14T09:06:46;6.97;;;5.30;;
14774;SDS011;7479;47.042;15.160;2023-06-14T09:11:44;9.47;;;4.53;;
14774;SDS011;7479;47.042;15.160;2023-06-14T09:16:37;5.73;;;4.63;;
14774;SDS011;7479;47.042;15.160;2023-06-14T09:21:34;6.30;;;4.50;;
14774;SDS011;7479;47.042;15.160;2023-06-14T09:26:28;5.67;;;4.30;;
14774;SDS011;7479;47.042;15.160;2023-06-14T09:31:22;4.93;;;4.40;;
14774;SDS011;7479;47.042;15.160;2023-06-14T09:36:17;5.37;;;4.30;;
14774;SDS011;7479;47.042;15.160;2023-06-14T09:41:15;6.68;;;3.90;;
14774;SDS011;7479;47.042;15.160;2023-06-14T09:46:08;6.45;;;4.18;;
14774;SDS011;7479;47.042;15.160;2023-06-14T09:51:02;4.97;;;4.50;;
14774;SDS011;7479;47.042;15.160;2023-06-14T09:55:57;7.47;;;5.50;;
14774;SDS011;7479;47.042;15.160;2023-06-14T10:00:53;5.18;;;4.68;;
14774;SDS011;7479;47.042;15.160;2023-06-14T10:05:47;5.82;;;4.40;;
14774;SDS011;7479;47.042;15.160;2023-06-14T10:10:43;5.18;;;3.80;;
14774;SDS011;7479;47.042;15.160;2023-06-14T10:15:38;4.55;;;4.15;;
14774;SDS011;7479;47.042;15.160;2023-06-14T10:20:51;6.03;;;4.00;;
14774;SDS011;7479;47.042;15.160;2023-06-14T10:25:54;5.55;;;3.30;;
14774;SDS011;7479;47.042;15.160;2023-06-14T10:31:04;4.53;;;4.07;;
14774;SDS011;7479;47.042;15.160;2023-06-14T10:41:22;4.63;;;3.83;;
14774;SDS011;7479;47.042;15.160;2023-06-14T10:46:17;5.00;;;3.50;;
14774;SDS011;7479;47.042;15.160;2023-06-14T10:51:18;6.22;;;3.80;;
14774;SDS011;7479;47.042;15.160;2023-06-14T10:56:24;4.15;;;3.75;;
14774;SDS011;7479;47.042;15.160;2023-06-14T11:01:23;6.13;;;4.10;;
14774;SDS011;7479;47.042;15.160;2023-06-14T11:06:27;7.88;;;4.22;;
14774;SDS011;7479;47.042;15.160;2023-06-14T11:11:50;4.80;;;3.63;;
14774;SDS011;7479;47.042;15.160;2023-06-14T11:16:47;4.28;;;3.72;;
14774;SDS011;7479;47.042;15.160;2023-06-14T11:21:41;6.38;;;3.33;;
14774;SDS011;7479;47.042;15.160;2023-06-14T11:26:37;4.90;;;4.40;;
14774;SDS011;7479;47.042;15.160;2023-06-14T11:31:32;3.90;;;3.50;;
14774;SDS011;7479;47.042;15.160;2023-06-14T11:36:26;4.00;;;3.60;;
14774;SDS011;7479;47.042;15.160;2023-06-14T11:41:24;3.55;;;3.25;;
14774;SDS011;7479;47.042;15.160;2023-06-14T11:46:17;4.05;;;3.72;;
14774;SDS011;7479;47.042;15.160;2023-06-14T11:51:17;4.20;;;3.80;;
14774;SDS011;7479;47.042;15.160;2023-06-14T11:56:12;4.90;;;3.65;;
14774;SDS011;7479;47.042;15.160;2023-06-14T12:01:08;7.15;;;3.95;;
14774;SDS011;7479;47.042;15.160;2023-06-14T12:06:03;6.72;;;5.13;;
14774;SDS011;7479;47.042;15.160;2023-06-14T12:11:00;4.57;;;3.67;;
14774;SDS011;7479;47.042;15.160;2023-06-14T12:15:55;5.88;;;3.90;;
14774;SDS011;7479;47.042;15.160;2023-06-14T12:20:49;4.95;;;3.53;;
14774;SDS011;7479;47.042;15.160;2023-06-14T12:25:43;4.00;;;3.53;;
14774;SDS011;7479;47.042;15.160;2023-06-14T12:30:39;6.28;;;3.90;;
14774;SDS011;7479;47.042;15.160;2023-06-14T12:35:33;6.55;;;3.78;;
14774;SDS011;7479;47.042;15.160;2023-06-14T12:40:26;4.85;;;3.97;;
14774;SDS011;7479;47.042;15.160;2023-06-14T12:45:20;5.45;;;3.97;;
14774;SDS011;7479;47.042;15.160;2023-06-14T12:50:16;4.15;;;3.78;;
14774;SDS011;7479;47.042;15.160;2023-06-14T12:55:10;4.88;;;3.90;;
14774;SDS011;7479;47.042;15.160;2023-06-14T13:00:04;4.30;;;3.90;;
14774;SDS011;7479;47.042;15.160;2023-06-14T13:04:59;4.13;;;3.58;;
14774;SDS011;7479;47.042;15.160;2023-06-14T13:09:56;4.13;;;3.70;;
14774;SDS011;7479;47.042;15.160;2023-06-14T13:14:50;5.15;;;3.90;;
14774;SDS011;7479;47.042;15.160;2023-06-14T13:19:43;5.53;;;3.78;;
14774;SDS011;7479;47.042;15.160;2023-06-14T13:24:36;8.18;;;4.10;;
14774;SDS011;7479;47.042;15.160;2023-06-14T13:29:31;4.28;;;3.88;;
14774;SDS011;7479;47.042;15.160;2023-06-14T13:34:27;4.30;;;3.90;;
14774;SDS011;7479;47.042;15.160;2023-06-14T13:39:21;4.82;;;4.40;;
14774;SDS011;7479;47.042;15.160;2023-06-14T13:44:14;5.82;;;3.85;;
14774;SDS011;7479;47.042;15.160;2023-06-14T13:49:11;6.70;;;4.53;;
14774;SDS011;7479;47.042;15.160;2023-06-14T13:54:05;5.13;;;4.35;;
14774;SDS011;7479;47.042;15.160;2023-06-14T13:58:58;6.70;;;4.25;;
14774;SDS011;7479;47.042;15.160;2023-06-14T14:03:52;4.85;;;4.28;;
14774;SDS011;7479;47.042;15.160;2023-06-14T14:08:47;5.05;;;4.40;;
14774;SDS011;7479;47.042;15.160;2023-06-14T14:13:40;4.85;;;3.78;;
14774;SDS011;7479;47.042;15.160;2023-06-14T14:18:34;4.78;;;3.47;;
14774;SDS011;7479;47.042;15.160;2023-06-14T14:23:28;5.13;;;3.80;;
14774;SDS011;7479;47.042;15.160;2023-06-14T14:28:23;6.47;;;3.80;;
14774;SDS011;7479;47.042;15.160;2023-06-14T14:33:17;4.93;;;4.10;;
14774;SDS011;7479;47.042;15.160;2023-06-14T14:38:10;5.10;;;3.70;;
14774;SDS011;7479;47.042;15.160;2023-06-14T14:43:04;5.65;;;3.50;;
14774;SDS011;7479;47.042;15.160;2023-06-14T14:48:00;4.28;;;3.80;;
14774;SDS011;7479;47.042;15.160;2023-06-14T14:52:53;4.32;;;3.50;;
14774;SDS011;7479;47.042;15.160;2023-06-14T14:57:47;4.05;;;3.65;;
14774;SDS011;7479;47.042;15.160;2023-06-14T15:02:41;5.13;;;3.53;;
14774;SDS011;7479;47.042;15.160;2023-06-14T15:07:36;4.03;;;3.63;;
14774;SDS011;7479;47.042;15.160;2023-06-14T15:12:31;5.00;;;3.83;;
14774;SDS011;7479;47.042;15.160;2023-06-14T15:17:24;3.75;;;3.35;;
14774;SDS011;7479;47.042;15.160;2023-06-14T15:22:18;5.88;;;3.90;;
14774;SDS011;7479;47.042;15.160;2023-06-14T15:27:13;5.40;;;3.60;;
14774;SDS011;7479;47.042;15.160;2023-06-14T15:32:07;4.32;;;3.90;;
14774;SDS011;7479;47.042;15.160;2023-06-14T15:37:01;6.70;;;4.03;;
14774;SDS011;7479;47.042;15.160;2023-06-14T15:41:54;4.20;;;3.20;;
14774;SDS011;7479;47.042;15.160;2023-06-14T15:46:49;3.83;;;3.45;;
14774;SDS011;7479;47.042;15.160;2023-06-14T15:51:43;4.32;;;3.92;;
14774;SDS011;7479;47.042;15.160;2023-06-14T15:56:36;4.05;;;3.70;;
14774;SDS011;7479;47.042;15.160;2023-06-14T16:01:29;3.63;;;3.25;;
14774;SDS011;7479;47.042;15.160;2023-06-14T16:06:24;4.72;;;4.10;;
14774;SDS011;7479;47.042;15.160;2023-06-14T16:11:18;5.78;;;4.20;;
14774;SDS011;7479;47.042;15.160;2023-06-14T16:16:11;4.45;;;4.05;;
14774;SDS011;7479;47.042;15.160;2023-06-14T16:21:05;5.35;;;4.03;;
14774;SDS011;7479;47.042;15.160;2023-06-14T16:26:02;4.55;;;4.15;;
14774;SDS011;7479;47.042;15.160;2023-06-14T16:30:55;4.05;;;3.65;;
14774;SDS011;7479;47.042;15.160;2023-06-14T16:35:49;4.30;;;3.90;;
14774;SDS011;7479;47.042;15.160;2023-06-14T16:40:42;6.00;;;4.03;;
14774;SDS011;7479;47.042;15.160;2023-06-14T16:45:37;4.20;;;3.80;;
14774;SDS011;7479;47.042;15.160;2023-06-14T16:50:30;4.75;;;3.95;;
14774;SDS011;7479;47.042;15.160;2023-06-14T16:55:27;5.20;;;4.10;;
14774;SDS011;7479;47.042;15.160;2023-06-14T17:00:20;5.15;;;3.63;;
14774;SDS011;7479;47.042;15.160;2023-06-14T17:05:15;5.97;;;4.50;;
14774;SDS011;7479;47.042;15.160;2023-06-14T17:10:09;5.18;;;3.72;;
14774;SDS011;7479;47.042;15.160;2023-06-14T17:15:03;6.72;;;4.22;;
14774;SDS011;7479;47.042;15.160;2023-06-14T17:19:58;5.28;;;4.20;;
14774;SDS011;7479;47.042;15.160;2023-06-14T17:24:52;4.47;;;4.07;;
14774;SDS011;7479;47.042;15.160;2023-06-14T17:29:46;7.38;;;5.07;;
14774;SDS011;7479;47.042;15.160;2023-06-14T17:34:39;5.88;;;4.15;;
14774;SDS011;7479;47.042;15.160;2023-06-14T17:39:33;4.40;;;3.40;;
14774;SDS011;7479;47.042;15.160;2023-06-14T17:44:29;3.97;;;3.40;;
14774;SDS011;7479;47.042;15.160;2023-06-14T17:49:22;5.40;;;4.18;;
14774;SDS011;7479;47.042;15.160;2023-06-14T17:54:17;7.20;;;4.18;;
14774;SDS011;7479;47.042;15.160;2023-06-14T17:59:11;6.65;;;4.25;;
14774;SDS011;7479;47.042;15.160;2023-06-14T18:04:06;5.90;;;4.20;;
14774;SDS011;7479;47.042;15.160;2023-06-14T18:08:59;4.57;;;4.18;;
14774;SDS011;7479;47.042;15.160;2023-06-14T18:13:53;4.68;;;4.13;;
14774;SDS011;7479;47.042;15.160;2023-06-14T18:18:46;4.32;;;3.92;;
14774;SDS011;7479;47.042;15.160;2023-06-14T18:23:42;5.95;;;4.18;;
14774;SDS011;7479;47.042;15.160;2023-06-14T18:28:37;5.13;;;4.30;;
14774;SDS011;7479;47.042;15.160;2023-06-14T18:33:31;6.70;;;3.97;;
14774;SDS011;7479;47.042;15.160;2023-06-14T18:38:25;5.63;;;4.63;;
14774;SDS011;7479;47.042;15.160;2023-06-14T18:43:19;7.25;;;4.65;;
14774;SDS011;7479;47.042;15.160;2023-06-14T18:48:13;6.45;;;4.80;;
14774;SDS011;7479;47.042;15.160;2023-06-14T18:53:07;7.25;;;4.45;;
14774;SDS011;7479;47.042;15.160;2023-06-14T18:58:00;7.07;;;3.75;;
14774;SDS011;7479;47.042;15.160;2023-06-14T19:02:55;5.03;;;4.50;;
14774;SDS011;7479;47.042;15.160;2023-06-14T19:07:48;6.28;;;5.00;;
14774;SDS011;7479;47.042;15.160;2023-06-14T19:12:42;6.38;;;5.03;;
14774;SDS011;7479;47.042;15.160;2023-06-14T19:17:35;8.93;;;7.00;;
14774;SDS011;7479;47.042;15.160;2023-06-14T19:22:30;9.80;;;5.30;;
14774;SDS011;7479;47.042;15.160;2023-06-14T19:27:23;7.88;;;4.63;;
14774;SDS011;7479;47.042;15.160;2023-06-14T19:32:17;5.80;;;4.90;;
14774;SDS011;7479;47.042;15.160;2023-06-14T19:37:11;9.40;;;4.55;;
14774;SDS011;7479;47.042;15.160;2023-06-14T19:42:07;5.07;;;4.57;;
14774;SDS011;7479;47.042;15.160;2023-06-14T19:47:00;8.48;;;4.40;;
14774;SDS011;7479;47.042;15.160;2023-06-14T19:51:54;6.85;;;4.57;;
14774;SDS011;7479;47.042;15.160;2023-06-14T19:56:47;5.50;;;4.40;;
14774;SDS011;7479;47.042;15.160;2023-06-14T20:01:42;8.15;;;4.78;;
14774;SDS011;7479;47.042;15.160;2023-06-14T20:06:36;6.05;;;5.07;;
14774;SDS011;7479;47.042;15.160;2023-06-14T20:11:29;4.93;;;4.50;;
14774;SDS011;7479;47.042;15.160;2023-06-14T20:16:23;6.57;;;4.72;;
14774;SDS011;7479;47.042;15.160;2023-06-14T20:21:18;5.28;;;4.57;;
14774;SDS011;7479;47.042;15.160;2023-06-14T20:26:11;8.05;;;4.80;;
14774;SDS011;7479;47.042;15.160;2023-06-14T20:31:05;8.00;;;5.10;;
14774;SDS011;7479;47.042;15.160;2023-06-14T20:35:59;5.78;;;5.28;;
14774;SDS011;7479;47.042;15.160;2023-06-14T20:40:54;6.50;;;4.68;;
14774;SDS011;7479;47.042;15.160;2023-06-14T20:45:49;5.78;;;4.75;;
14774;SDS011;7479;47.042;15.160;2023-06-14T20:50:46;5.45;;;4.45;;
14774;SDS011;7479;47.042;15.160;2023-06-14T20:55:40;5.32;;;4.82;;
14774;SDS011;7479;47.042;15.160;2023-06-14T21:00:34;6.10;;;5.20;;
14774;SDS011;7479;47.042;15.160;2023-06-14T21:05:28;5.90;;;5.00;;
14774;SDS011;7479;47.042;15.160;2023-06-14T21:10:22;5.30;;;4.78;;
14774;SDS011;7479;47.042;15.160;2023-06-14T21:15:17;5.03;;;4.20;;
14774;SDS011;7479;47.042;15.160;2023-06-14T21:20:11;7.40;;;5.07;;
14774;SDS011;7479;47.042;15.160;2023-06-14T21:25:05;6.70;;;4.93;;
14774;SDS011;7479;47.042;15.160;2023-06-14T21:29:59;5.75;;;4.97;;
